createdAt,value
2022-08-24T00:01:25.125Z,16.51
2022-08-24T00:04:28.437Z,16.44
2022-08-24T00:07:35.420Z,16.29
2022-08-24T00:10:40.622Z,16.22
2022-08-24T00:13:44.541Z,16.10
2022-08-24T00:16:47.477Z,16.12
2022-08-24T00:19:51.340Z,15.99
2022-08-24T00:22:54.306Z,16.06
2022-08-24T00:25:59.028Z,16.05
2022-08-24T00:29:05.514Z,15.95
2022-08-24T00:32:10.361Z,15.89
2022-08-24T00:35:14.852Z,15.96
2022-08-24T00:38:18.060Z,15.96
2022-08-24T00:41:22.567Z,15.98
2022-08-24T00:44:26.312Z,15.95
2022-08-24T00:47:35.987Z,15.96
2022-08-24T00:50:42.437Z,15.91
2022-08-24T00:53:49.081Z,15.77
2022-08-24T00:57:05.364Z,15.73
2022-08-24T01:00:13.231Z,15.72
2022-08-24T01:03:16.239Z,15.70
2022-08-24T01:06:19.822Z,15.77
2022-08-24T01:09:22.977Z,15.77
2022-08-24T01:12:29.239Z,15.78
2022-08-24T01:15:35.495Z,15.75
2022-08-24T01:18:50.941Z,15.71
2022-08-24T01:22:05.359Z,15.70
2022-08-24T01:25:10.490Z,15.74
2022-08-24T01:28:23.407Z,15.68
2022-08-24T01:31:31.816Z,15.70
2022-08-24T01:34:35.265Z,15.72
2022-08-24T01:37:38.643Z,15.70
2022-08-24T01:40:58.011Z,15.57
2022-08-24T01:44:08.261Z,15.58
2022-08-24T01:47:13.605Z,15.54
2022-08-24T01:50:17.251Z,15.47
2022-08-24T01:53:20.862Z,15.57
2022-08-24T01:56:25.093Z,15.64
2022-08-24T01:59:28.475Z,15.61
2022-08-24T02:02:33.285Z,15.59
2022-08-24T02:05:36.517Z,15.57
2022-08-24T02:08:39.430Z,15.56
2022-08-24T02:11:44.366Z,15.52
2022-08-24T02:14:49.074Z,15.51
2022-08-24T02:17:52.341Z,15.46
2022-08-24T02:20:55.227Z,15.42
2022-08-24T02:23:58.179Z,15.44
2022-08-24T02:27:02.594Z,15.51
2022-08-24T02:30:06.351Z,15.47
2022-08-24T02:33:09.783Z,15.28
2022-08-24T02:36:26.291Z,15.37
2022-08-24T02:39:32.336Z,15.29
2022-08-24T02:42:40.539Z,15.21
2022-08-24T02:45:50.338Z,15.28
2022-08-24T02:49:10.904Z,15.14
2022-08-24T02:52:15.185Z,15.19
2022-08-24T02:55:20.563Z,15.12
2022-08-24T02:58:27.871Z,15.14
2022-08-24T03:01:30.878Z,15.04
2022-08-24T03:04:34.474Z,14.96
2022-08-24T03:07:39.138Z,14.98
2022-08-24T03:10:41.916Z,15.10
2022-08-24T03:13:46.153Z,15.17
2022-08-24T03:16:48.969Z,15.11
2022-08-24T03:19:53.829Z,15.03
2022-08-24T03:22:56.630Z,14.87
2022-08-24T03:25:59.617Z,14.94
2022-08-24T03:29:04.054Z,14.89
2022-08-24T03:32:08.822Z,14.87
2022-08-24T03:35:13.939Z,14.82
2022-08-24T03:38:17.070Z,14.77
2022-08-24T03:41:20.454Z,14.62
2022-08-24T03:44:26.258Z,14.68
2022-08-24T03:47:30.363Z,14.70
2022-08-24T03:50:33.213Z,14.67
2022-08-24T03:53:36.861Z,14.66
2022-08-24T03:56:45.736Z,14.68
2022-08-24T03:59:50.462Z,14.71
2022-08-24T04:02:53.246Z,14.73
2022-08-24T04:05:58.450Z,14.74
2022-08-24T04:09:04.936Z,14.70
2022-08-24T04:12:11.282Z,14.66
2022-08-24T04:15:15.641Z,14.65
2022-08-24T04:18:18.409Z,14.70
2022-08-24T04:21:23.021Z,14.67
2022-08-24T04:24:27.138Z,14.80
2022-08-24T04:27:29.952Z,14.86
2022-08-24T04:30:34.111Z,14.78
2022-08-24T04:33:42.929Z,14.71
2022-08-24T04:36:49.823Z,14.65
2022-08-24T04:39:53.188Z,14.68
2022-08-24T04:43:03.461Z,14.67
2022-08-24T04:46:09.931Z,14.72
2022-08-24T04:49:12.749Z,14.59
2022-08-24T04:52:16.017Z,14.67
2022-08-24T04:55:19.797Z,14.63
2022-08-24T04:58:22.583Z,14.69
2022-08-24T05:01:34.514Z,14.71
2022-08-24T05:04:39.729Z,14.67
2022-08-24T05:07:45.009Z,14.71
2022-08-24T05:10:50.569Z,14.73
2022-08-24T05:13:53.874Z,14.77
2022-08-24T05:16:58.097Z,14.84
2022-08-24T05:20:01.022Z,14.84
2022-08-24T05:23:04.700Z,14.87
2022-08-24T05:26:12.385Z,14.85
2022-08-24T05:29:15.486Z,14.83
2022-08-24T05:32:24.809Z,14.91
2022-08-24T05:35:29.332Z,14.99
2022-08-24T05:38:34.399Z,14.98
2022-08-24T05:41:37.354Z,14.93
2022-08-24T05:44:47.097Z,15.00
2022-08-24T05:47:54.365Z,15.06
2022-08-24T05:51:16.227Z,15.11
2022-08-24T05:54:28.905Z,15.11
2022-08-24T05:57:38.245Z,15.10
2022-08-24T06:00:52.165Z,15.17
2022-08-24T06:03:57.912Z,15.20
2022-08-24T06:07:01.180Z,15.26
2022-08-24T06:10:32.836Z,15.26
2022-08-24T06:13:28.394Z,15.29
2022-08-24T06:16:31.586Z,15.35
2022-08-24T06:19:36.597Z,15.39
2022-08-24T06:22:39.561Z,15.47
2022-08-24T06:25:59.954Z,15.46
2022-08-24T06:29:03.437Z,15.58
2022-08-24T06:32:07.938Z,15.60
2022-08-24T06:35:12.165Z,15.61
2022-08-24T06:38:15.060Z,15.67
2022-08-24T06:41:21.764Z,15.77
2022-08-24T06:44:24.686Z,15.81
2022-08-24T06:47:36.362Z,15.83
2022-08-24T06:50:41.452Z,15.95
2022-08-24T06:53:45.322Z,16.03
2022-08-24T06:56:48.193Z,16.13
2022-08-24T06:59:51.089Z,16.24
2022-08-24T07:02:55.185Z,16.33
2022-08-24T07:05:59.699Z,16.42
2022-08-24T07:09:12.208Z,16.41
2022-08-24T07:12:15.127Z,16.48
2022-08-24T07:15:19.285Z,16.51
2022-08-24T07:18:31.703Z,16.61
2022-08-24T07:21:35.986Z,16.68
2022-08-24T07:24:40.849Z,16.78
2022-08-24T07:27:44.902Z,16.88
2022-08-24T07:30:47.937Z,16.99
2022-08-24T07:33:51.584Z,17.02
2022-08-24T07:36:55.899Z,17.08
2022-08-24T07:39:59.144Z,17.14
2022-08-24T07:43:02.293Z,17.26
2022-08-24T07:46:06.531Z,17.32
2022-08-24T07:49:21.420Z,17.42
2022-08-24T07:52:35.675Z,17.57
2022-08-24T07:55:45.881Z,17.62
2022-08-24T07:58:49.383Z,17.77
2022-08-24T08:01:57.837Z,17.77
2022-08-24T08:05:01.069Z,17.86
2022-08-24T08:08:07.039Z,17.96
2022-08-24T08:11:11.667Z,18.13
2022-08-24T08:14:16.289Z,18.22
2022-08-24T08:17:19.098Z,18.22
2022-08-24T08:20:22.034Z,18.30
2022-08-24T08:23:43.717Z,18.35
2022-08-24T08:26:57.724Z,18.39
2022-08-24T08:30:07.624Z,18.51
2022-08-24T08:33:12.271Z,18.72
2022-08-24T08:36:16.143Z,18.76
2022-08-24T08:39:26.133Z,18.99
2022-08-24T08:42:54.566Z,19.06
2022-08-24T08:46:16.753Z,19.18
2022-08-24T08:50:00.483Z,19.31
2022-08-24T08:53:34.212Z,19.49
2022-08-24T08:56:50.572Z,19.53
2022-08-24T09:00:10.227Z,19.73
2022-08-24T09:03:40.122Z,19.77
2022-08-24T09:07:19.486Z,19.84
2022-08-24T09:10:45.660Z,20.18
2022-08-24T09:14:05.422Z,20.20
2022-08-24T09:17:33.093Z,20.38
2022-08-24T09:21:03.312Z,20.45
2022-08-24T09:24:25.741Z,20.75
2022-08-24T09:27:50.369Z,20.94
2022-08-24T09:31:11.746Z,20.92
2022-08-24T09:34:23.851Z,21.04
2022-08-24T09:37:33.806Z,20.95
2022-08-24T09:40:53.011Z,20.89
2022-08-24T09:44:14.593Z,20.91
2022-08-24T09:47:46.248Z,21.04
2022-08-24T09:51:24.683Z,21.12
2022-08-24T09:54:48.686Z,21.23
2022-08-24T09:58:11.351Z,21.24
2022-08-24T10:01:24.076Z,21.22
2022-08-24T10:04:35.601Z,21.22
2022-08-24T10:07:50.514Z,21.41
2022-08-24T10:10:59.641Z,21.48
2022-08-24T10:14:10.657Z,21.54
2022-08-24T10:17:21.698Z,21.62
2022-08-24T10:20:30.481Z,21.60
2022-08-24T10:23:46.117Z,21.69
2022-08-24T10:27:18.644Z,21.90
2022-08-24T10:30:41.149Z,21.87
2022-08-24T10:33:56.794Z,21.82
2022-08-24T10:37:25.720Z,21.90
2022-08-24T10:40:40.135Z,21.87
2022-08-24T10:44:05.958Z,21.88
2022-08-24T10:47:19.894Z,21.84
2022-08-24T10:51:05.491Z,21.78
2022-08-24T10:54:12.754Z,21.94
2022-08-24T10:57:26.169Z,22.42
2022-08-24T11:00:30.830Z,22.25
2022-08-24T11:03:34.770Z,22.44
2022-08-24T11:06:39.858Z,22.74
2022-08-24T11:09:51.752Z,22.92
2022-08-24T11:12:55.311Z,22.91
2022-08-24T11:16:01.568Z,22.81
2022-08-24T11:19:09.629Z,22.77
2022-08-24T11:22:30.253Z,22.72
2022-08-24T11:25:37.935Z,23.01
2022-08-24T11:28:47.940Z,23.11
2022-08-24T11:31:52.807Z,23.22
2022-08-24T11:34:56.144Z,23.09
2022-08-24T11:38:10.185Z,22.93
2022-08-24T11:41:20.453Z,23.13
2022-08-24T11:44:38.332Z,23.50
2022-08-24T11:48:01.505Z,23.24
2022-08-24T11:51:13.530Z,23.13
2022-08-24T11:54:25.999Z,23.33
2022-08-24T11:57:47.411Z,23.46
2022-08-24T12:00:57.030Z,23.32
2022-08-24T12:04:10.660Z,23.76
2022-08-24T12:07:23.560Z,23.82
2022-08-24T12:10:37.126Z,23.76
2022-08-24T12:13:54.073Z,23.39
2022-08-24T12:17:03.381Z,23.18
2022-08-24T12:20:18.959Z,23.37
2022-08-24T12:23:27.210Z,23.68
2022-08-24T12:26:34.347Z,23.75
2022-08-24T12:29:45.506Z,23.78
2022-08-24T12:32:53.787Z,23.81
2022-08-24T12:36:02.463Z,23.96
2022-08-24T12:39:11.794Z,24.15
2022-08-24T12:42:19.890Z,23.93
2022-08-24T12:45:25.993Z,23.94
2022-08-24T12:48:35.505Z,23.90
2022-08-24T12:51:57.787Z,23.89
2022-08-24T12:55:20.956Z,23.94
2022-08-24T12:58:54.731Z,23.92
2022-08-24T13:02:03.922Z,24.01
2022-08-24T13:05:14.279Z,23.97
2022-08-24T13:08:24.211Z,24.06
2022-08-24T13:11:32.215Z,24.07
2022-08-24T13:14:35.848Z,23.97
2022-08-24T13:17:43.432Z,23.97
2022-08-24T13:20:56.874Z,24.05
2022-08-24T13:24:33.212Z,24.13
2022-08-24T13:28:06.957Z,24.10
2022-08-24T13:31:20.690Z,24.03
2022-08-24T13:34:44.512Z,24.05
2022-08-24T13:38:32.449Z,24.14
2022-08-24T13:41:50.219Z,24.21
2022-08-24T13:45:15.711Z,24.50
2022-08-24T13:48:29.714Z,24.46
2022-08-24T13:51:43.221Z,24.52
2022-08-24T13:55:04.255Z,24.44
2022-08-24T13:58:19.558Z,24.49
2022-08-24T14:01:31.204Z,24.50
2022-08-24T14:04:47.544Z,24.57
2022-08-24T14:07:58.394Z,24.46
2022-08-24T14:11:10.957Z,24.35
2022-08-24T14:14:22.686Z,24.28
2022-08-24T14:17:55.788Z,24.18
2022-08-24T14:21:09.788Z,24.24
2022-08-24T14:24:28.086Z,24.10
2022-08-24T14:27:39.288Z,24.16
2022-08-24T14:30:50.454Z,24.14
2022-08-24T14:34:14.318Z,24.22
2022-08-24T14:37:24.041Z,24.40
2022-08-24T14:40:35.706Z,24.37
2022-08-24T14:44:07.094Z,24.50
2022-08-24T14:47:20.311Z,24.41
2022-08-24T14:50:28.576Z,24.35
2022-08-24T14:53:51.137Z,24.44
2022-08-24T14:57:09.824Z,24.33
2022-08-24T15:00:16.887Z,24.34
2022-08-24T15:03:42.828Z,24.25
2022-08-24T15:06:49.797Z,24.25
2022-08-24T15:09:53.958Z,24.28
2022-08-24T15:13:03.900Z,24.33
2022-08-24T15:16:13.139Z,24.50
2022-08-24T15:19:27.268Z,24.48
2022-08-24T15:22:41.025Z,24.54
2022-08-24T15:25:53.952Z,24.65
2022-08-24T15:29:12.732Z,24.72
2022-08-24T15:32:15.953Z,24.89
2022-08-24T15:35:31.927Z,24.70
2022-08-24T15:38:37.065Z,24.83
2022-08-24T15:41:43.061Z,24.98
2022-08-24T15:44:50.095Z,24.84
2022-08-24T15:47:54.618Z,24.91
2022-08-24T15:50:57.502Z,25.02
2022-08-24T15:54:26.799Z,24.95
2022-08-24T15:57:32.660Z,24.84
2022-08-24T16:00:56.072Z,24.70
2022-08-24T16:04:01.918Z,24.53
2022-08-24T16:07:05.330Z,24.44
2022-08-24T16:10:12.004Z,24.37
2022-08-24T16:13:25.125Z,24.27
2022-08-24T16:16:40.918Z,24.30
2022-08-24T16:19:51.363Z,24.30
2022-08-24T16:23:00.397Z,24.28
2022-08-24T16:26:22.503Z,24.22
2022-08-24T16:29:46.202Z,24.26
2022-08-24T16:32:55.829Z,24.11
2022-08-24T16:35:59.103Z,24.09
2022-08-24T16:39:01.846Z,23.95
2022-08-24T16:42:08.023Z,23.80
2022-08-24T16:45:14.962Z,23.80
2022-08-24T16:48:20.562Z,23.94
2022-08-24T16:51:26.919Z,23.72
2022-08-24T16:54:30.966Z,23.75
2022-08-24T16:57:36.409Z,23.68
2022-08-24T17:00:42.509Z,23.74
2022-08-24T17:03:48.997Z,23.44
2022-08-24T17:06:52.108Z,23.25
2022-08-24T17:09:56.274Z,23.15
2022-08-24T17:12:59.389Z,22.97
2022-08-24T17:16:03.305Z,22.92
2022-08-24T17:19:12.085Z,22.79
2022-08-24T17:22:16.533Z,22.79
2022-08-24T17:25:19.677Z,22.60
2022-08-24T17:28:22.598Z,22.59
2022-08-24T17:31:25.957Z,22.63
2022-08-24T17:34:30.171Z,22.59
2022-08-24T17:37:33.555Z,22.46
2022-08-24T17:40:36.926Z,22.45
2022-08-24T17:43:39.882Z,22.38
2022-08-24T17:46:43.177Z,22.32
2022-08-24T17:49:47.336Z,22.26
2022-08-24T17:52:50.413Z,22.14
2022-08-24T17:56:01.999Z,22.04
2022-08-24T17:59:23.693Z,21.98
2022-08-24T18:02:26.749Z,21.90
2022-08-24T18:05:32.923Z,21.89
2022-08-24T18:08:36.954Z,21.71
2022-08-24T18:11:39.834Z,21.68
2022-08-24T18:14:43.048Z,21.54
2022-08-24T18:17:51.551Z,21.42
2022-08-24T18:20:55.774Z,21.35
2022-08-24T18:24:01.411Z,21.25
2022-08-24T18:27:10.140Z,21.24
2022-08-24T18:30:19.752Z,21.16
2022-08-24T18:33:25.790Z,21.15
2022-08-24T18:36:30.646Z,21.17
2022-08-24T18:39:34.068Z,21.18
2022-08-24T18:42:38.293Z,21.18
2022-08-24T18:45:41.383Z,20.99
2022-08-24T18:48:44.309Z,20.98
2022-08-24T18:51:49.434Z,20.86
2022-08-24T18:54:52.546Z,20.97
2022-08-24T18:57:55.678Z,21.03
2022-08-24T19:00:58.802Z,20.99
2022-08-24T19:04:09.488Z,20.91
2022-08-24T19:07:16.949Z,20.95
2022-08-24T19:10:24.454Z,20.97
2022-08-24T19:13:27.429Z,20.90
2022-08-24T19:16:30.792Z,20.88
2022-08-24T19:19:33.932Z,20.84
2022-08-24T19:22:39.426Z,20.81
2022-08-24T19:25:45.376Z,20.82
2022-08-24T19:28:48.206Z,20.81
2022-08-24T19:31:52.637Z,20.41
2022-08-24T19:34:56.778Z,20.36
2022-08-24T19:38:01.163Z,20.26
2022-08-24T19:41:11.837Z,20.32
2022-08-24T19:44:35.859Z,20.44
2022-08-24T19:47:40.763Z,20.42
2022-08-24T19:50:44.075Z,20.26
2022-08-24T19:53:48.188Z,20.22
2022-08-24T19:56:54.286Z,19.99
2022-08-24T19:59:59.724Z,19.99
2022-08-24T20:03:04.708Z,19.88
2022-08-24T20:06:08.105Z,19.51
2022-08-24T20:09:13.370Z,19.44
2022-08-24T20:12:16.493Z,19.36
2022-08-24T20:15:20.383Z,19.52
2022-08-24T20:18:30.382Z,19.24
2022-08-24T20:21:33.514Z,19.15
2022-08-24T20:24:37.965Z,19.16
2022-08-24T20:27:40.927Z,19.09
2022-08-24T20:30:44.550Z,19.17
2022-08-24T20:33:47.380Z,19.19
2022-08-24T20:36:51.693Z,19.30
2022-08-24T20:39:57.532Z,19.02
2022-08-24T20:43:01.006Z,19.02
2022-08-24T20:46:06.382Z,19.04
2022-08-24T20:49:12.331Z,18.85
2022-08-24T20:52:19.224Z,18.89
2022-08-24T20:55:23.362Z,18.84
2022-08-24T20:58:26.613Z,19.00
2022-08-24T21:01:29.897Z,19.11
2022-08-24T21:04:33.082Z,19.11
2022-08-24T21:07:35.953Z,19.05
2022-08-24T21:10:40.436Z,19.02
2022-08-24T21:13:46.682Z,18.97
2022-08-24T21:16:50.599Z,18.81
2022-08-24T21:19:56.492Z,18.69
2022-08-24T21:22:59.357Z,18.58
2022-08-24T21:26:06.029Z,18.50
2022-08-24T21:29:11.192Z,18.45
2022-08-24T21:32:31.393Z,18.03
2022-08-24T21:35:35.980Z,17.83
2022-08-24T21:38:39.587Z,17.74
2022-08-24T21:41:49.543Z,17.82
2022-08-24T21:44:52.361Z,17.75
2022-08-24T21:47:55.689Z,17.62
2022-08-24T21:50:58.566Z,17.81
2022-08-24T21:54:01.409Z,17.87
2022-08-24T21:57:07.280Z,17.96
2022-08-24T22:00:14.990Z,18.10
2022-08-24T22:03:18.056Z,18.14
2022-08-24T22:06:20.900Z,18.18
2022-08-24T22:09:23.715Z,18.18
2022-08-24T22:12:27.844Z,18.16
2022-08-24T22:15:31.501Z,18.09
2022-08-24T22:18:35.421Z,18.10
2022-08-24T22:21:45.891Z,18.05
2022-08-24T22:24:50.573Z,18.02
2022-08-24T22:27:54.698Z,17.97
2022-08-24T22:30:57.500Z,17.96
2022-08-24T22:34:03.042Z,17.96
2022-08-24T22:37:06.454Z,17.80
2022-08-24T22:40:12.718Z,17.76
2022-08-24T22:43:17.096Z,17.85
2022-08-24T22:46:20.194Z,17.89
2022-08-24T22:49:27.858Z,17.94
2022-08-24T22:52:30.605Z,18.07
2022-08-24T22:55:33.460Z,18.02
2022-08-24T22:58:37.587Z,18.00
2022-08-24T23:01:43.660Z,17.88
2022-08-24T23:04:48.499Z,17.87
2022-08-24T23:07:51.298Z,17.75
2022-08-24T23:10:55.450Z,17.71
2022-08-24T23:14:03.382Z,17.59
2022-08-24T23:17:06.554Z,17.56
2022-08-24T23:20:10.389Z,17.33
2022-08-24T23:23:13.166Z,17.43
2022-08-24T23:26:18.153Z,17.38
2022-08-24T23:29:22.869Z,17.49
2022-08-24T23:32:26.618Z,17.51
2022-08-24T23:35:29.534Z,17.36
2022-08-24T23:38:32.664Z,17.31
2022-08-24T23:41:39.354Z,17.26
2022-08-24T23:44:46.902Z,17.14
2022-08-24T23:47:50.380Z,17.17
2022-08-24T23:50:53.205Z,17.25
2022-08-24T23:53:57.047Z,17.19
2022-08-24T23:57:00.578Z,17.04
